createdAt,value
2022-10-26T00:01:36.281Z,8.93
2022-10-26T00:04:38.036Z,9.17
2022-10-26T00:10:42.158Z,9.63
2022-10-26T00:13:43.751Z,9.60
2022-10-26T00:16:45.296Z,9.53
2022-10-26T00:19:46.857Z,8.30
2022-10-26T00:22:48.448Z,10.03
2022-10-26T00:25:56.935Z,9.33
2022-10-26T00:28:58.569Z,10.03
2022-10-26T00:32:00.217Z,9.43
2022-10-26T00:35:10.581Z,9.20
2022-10-26T00:38:23.105Z,9.73
2022-10-26T00:41:26.385Z,9.80
2022-10-26T00:45:01.718Z,9.53
2022-10-26T00:48:07.384Z,8.93
2022-10-26T00:51:10.668Z,9.03
2022-10-26T00:54:16.254Z,8.93
2022-10-26T00:57:18.623Z,8.83
2022-10-26T01:00:20.593Z,8.97
2022-10-26T01:03:25.240Z,9.53
2022-10-26T01:06:28.627Z,9.00
2022-10-26T01:09:30.428Z,9.50
2022-10-26T01:12:32.009Z,9.10
2022-10-26T01:15:45.501Z,9.47
2022-10-26T01:19:05.120Z,9.00
2022-10-26T01:22:14.443Z,8.97
2022-10-26T01:25:16.020Z,8.13
2022-10-26T01:28:36.347Z,8.10
2022-10-26T01:31:42.632Z,8.23
2022-10-26T01:34:47.038Z,8.50
2022-10-26T01:37:52.903Z,8.00
2022-10-26T01:40:54.412Z,8.00
2022-10-26T01:44:01.506Z,7.70
2022-10-26T01:47:04.124Z,6.20
2022-10-26T01:50:06.133Z,7.40
2022-10-26T01:53:11.356Z,7.70
2022-10-26T01:56:21.080Z,7.50
2022-10-26T01:59:31.480Z,8.03
2022-10-26T02:02:51.846Z,7.67
2022-10-26T02:05:56.257Z,7.50
2022-10-26T02:09:19.970Z,7.53
2022-10-26T02:12:27.734Z,7.90
2022-10-26T02:15:38.932Z,8.00
2022-10-26T02:18:40.475Z,8.13
2022-10-26T02:21:45.189Z,7.70
2022-10-26T02:24:47.656Z,8.40
2022-10-26T02:27:51.258Z,8.03
2022-10-26T02:30:54.476Z,8.47
2022-10-26T02:33:57.105Z,7.77
2022-10-26T02:37:00.174Z,7.30
2022-10-26T02:40:04.470Z,7.47
2022-10-26T02:43:08.490Z,7.33
2022-10-26T02:46:12.156Z,7.63
2022-10-26T02:49:13.784Z,7.37
2022-10-26T02:52:15.390Z,7.03
2022-10-26T02:55:21.120Z,7.50
2022-10-26T02:58:30.502Z,7.73
2022-10-26T03:01:33.915Z,7.03
2022-10-26T03:04:35.757Z,8.40
2022-10-26T03:07:37.310Z,7.87
2022-10-26T03:10:43.042Z,7.87
2022-10-26T03:13:44.819Z,7.53
2022-10-26T03:16:46.499Z,8.43
2022-10-26T03:19:48.100Z,7.20
2022-10-26T03:22:49.641Z,7.80
2022-10-26T03:25:51.190Z,7.83
2022-10-26T03:28:52.834Z,8.03
2022-10-26T03:31:55.228Z,7.93
2022-10-26T03:34:58.174Z,7.57
2022-10-26T03:37:59.747Z,7.53
2022-10-26T03:41:01.380Z,7.83
2022-10-26T03:44:03.014Z,8.17
2022-10-26T03:47:04.665Z,7.57
2022-10-26T03:53:12.832Z,7.60
2022-10-26T03:56:14.397Z,8.63
2022-10-26T03:59:15.945Z,8.70
2022-10-26T04:02:17.523Z,8.83
2022-10-26T04:05:19.080Z,8.70
2022-10-26T04:08:20.877Z,8.33
2022-10-26T04:11:22.419Z,8.90
2022-10-26T04:14:24.062Z,8.67
2022-10-26T04:17:25.664Z,6.80
2022-10-26T04:20:27.878Z,7.60
2022-10-26T04:23:29.495Z,7.33
2022-10-26T04:26:31.056Z,10.87
2022-10-26T04:29:32.750Z,10.90
2022-10-26T04:32:34.345Z,10.67
2022-10-26T04:35:36.058Z,7.83
2022-10-26T04:38:37.643Z,7.80
2022-10-26T04:41:39.256Z,5.90
2022-10-26T04:44:40.950Z,5.90
2022-10-26T04:47:42.950Z,5.47
2022-10-26T04:50:50.162Z,6.40
2022-10-26T04:53:53.672Z,8.77
2022-10-26T04:56:55.291Z,10.33
2022-10-26T04:59:56.868Z,8.87
2022-10-26T05:03:02.448Z,7.37
2022-10-26T05:06:04.182Z,7.27
2022-10-26T05:09:05.881Z,6.33
2022-10-26T05:12:07.577Z,8.20
2022-10-26T05:15:11.951Z,10.23
2022-10-26T05:18:13.649Z,9.27
2022-10-26T05:21:19.430Z,8.80
2022-10-26T05:24:21.090Z,8.50
2022-10-26T05:27:22.648Z,9.37
2022-10-26T05:30:24.340Z,8.97
2022-10-26T05:33:26.081Z,9.27
2022-10-26T05:36:27.618Z,10.17
2022-10-26T05:39:29.181Z,9.20
2022-10-26T05:42:30.853Z,9.00
2022-10-26T05:45:32.408Z,8.47
2022-10-26T05:48:34.042Z,8.70
2022-10-26T05:51:37.245Z,9.30
2022-10-26T05:54:38.889Z,9.67
2022-10-26T05:57:40.764Z,9.57
2022-10-26T06:00:54.447Z,9.73
2022-10-26T06:04:02.687Z,8.70
2022-10-26T06:07:09.364Z,7.77
2022-10-26T06:10:11.160Z,6.80
2022-10-26T06:13:12.882Z,8.10
2022-10-26T06:16:14.487Z,8.53
2022-10-26T06:19:31.117Z,9.13
2022-10-26T06:22:44.025Z,9.93
2022-10-26T06:26:03.878Z,10.40
2022-10-26T06:29:08.271Z,8.97
2022-10-26T06:32:10.167Z,7.43
2022-10-26T06:35:17.335Z,7.50
2022-10-26T06:38:21.013Z,7.50
2022-10-26T06:41:22.850Z,7.13
2022-10-26T06:44:24.654Z,8.10
2022-10-26T06:47:39.150Z,8.20
2022-10-26T06:50:46.717Z,7.93
2022-10-26T06:53:51.959Z,7.30
2022-10-26T06:56:53.613Z,8.23
2022-10-26T06:59:57.638Z,8.53
2022-10-26T07:03:00.204Z,7.23
2022-10-26T07:06:02.009Z,7.10
2022-10-26T07:09:03.568Z,6.73
2022-10-26T07:12:05.316Z,5.67
2022-10-26T07:18:11.042Z,3.10
2022-10-26T07:21:12.812Z,4.23
2022-10-26T07:24:14.384Z,3.60
2022-10-26T07:27:15.928Z,2.97
2022-10-26T07:30:17.585Z,2.40
2022-10-26T07:33:19.915Z,2.77
2022-10-26T07:36:21.918Z,2.83
2022-10-26T07:39:23.637Z,2.60
2022-10-26T07:42:25.213Z,3.28
2022-10-26T07:45:27.791Z,2.30
2022-10-26T07:48:29.396Z,2.33
2022-10-26T07:51:31.047Z,2.30
2022-10-26T07:54:32.812Z,2.35
2022-10-26T07:57:34.577Z,4.18
2022-10-26T08:00:36.287Z,2.50
2022-10-26T08:03:37.915Z,2.30
2022-10-26T08:06:39.514Z,2.93
2022-10-26T08:09:41.089Z,2.57
2022-10-26T08:12:43.522Z,2.75
2022-10-26T08:15:45.390Z,2.40
2022-10-26T08:18:50.635Z,2.30
2022-10-26T08:21:52.285Z,2.60
2022-10-26T08:24:53.890Z,2.50
2022-10-26T08:27:55.576Z,2.80
2022-10-26T08:30:57.136Z,3.40
2022-10-26T08:33:59.615Z,2.75
2022-10-26T08:37:01.152Z,2.72
2022-10-26T08:40:06.067Z,2.60
2022-10-26T08:43:13.175Z,2.53
2022-10-26T08:46:20.348Z,2.30
2022-10-26T08:49:27.017Z,2.35
2022-10-26T08:52:36.473Z,3.40
2022-10-26T08:55:48.905Z,2.70
2022-10-26T08:58:53.546Z,2.47
2022-10-26T09:01:55.277Z,2.63
2022-10-26T09:04:59.287Z,2.58
2022-10-26T09:08:19.782Z,2.85
2022-10-26T09:11:28.269Z,3.05
2022-10-26T09:14:38.501Z,4.05
2022-10-26T09:17:58.803Z,2.33
2022-10-26T09:21:19.178Z,2.90
2022-10-26T09:24:24.092Z,2.33
2022-10-26T09:27:38.299Z,4.10
2022-10-26T09:30:40.099Z,3.03
2022-10-26T09:33:41.964Z,2.25
2022-10-26T09:36:43.489Z,2.63
2022-10-26T09:40:03.560Z,2.40
2022-10-26T09:43:07.745Z,2.70
2022-10-26T09:46:13.452Z,2.07
2022-10-26T09:49:16.449Z,2.30
2022-10-26T09:52:18.050Z,2.00
2022-10-26T09:55:21.891Z,2.30
2022-10-26T09:58:26.377Z,1.93
2022-10-26T10:01:35.486Z,2.00
2022-10-26T10:04:45.867Z,2.10
2022-10-26T10:07:47.499Z,2.27
2022-10-26T10:10:57.006Z,2.10
2022-10-26T10:14:05.806Z,1.47
2022-10-26T10:17:10.812Z,1.97
2022-10-26T10:20:18.018Z,1.63
2022-10-26T10:23:29.853Z,1.97
2022-10-26T10:26:31.474Z,2.40
2022-10-26T10:29:34.759Z,2.00
2022-10-26T10:32:39.185Z,1.80
2022-10-26T10:35:48.172Z,1.43
2022-10-26T10:38:50.522Z,1.50
2022-10-26T10:41:52.075Z,2.10
2022-10-26T10:44:55.327Z,1.60
2022-10-26T10:47:59.674Z,1.30
2022-10-26T10:51:03.327Z,1.80
2022-10-26T10:54:05.742Z,1.40
2022-10-26T10:57:33.626Z,1.40
2022-10-26T11:00:36.849Z,1.70
2022-10-26T11:03:47.925Z,1.73
2022-10-26T11:06:50.062Z,1.70
2022-10-26T11:13:02.954Z,1.33
2022-10-26T11:16:07.685Z,1.70
2022-10-26T11:19:15.189Z,1.27
2022-10-26T11:22:20.814Z,1.17
2022-10-26T11:25:28.446Z,1.23
2022-10-26T11:28:51.747Z,1.50
2022-10-26T11:32:12.205Z,1.87
2022-10-26T11:35:24.785Z,1.60
2022-10-26T11:38:56.455Z,1.60
2022-10-26T11:42:12.250Z,1.43
2022-10-26T11:45:23.735Z,1.70
2022-10-26T11:48:31.255Z,1.60
2022-10-26T11:51:32.896Z,1.60
2022-10-26T11:54:36.401Z,1.87
2022-10-26T11:57:38.322Z,1.80
2022-10-26T12:00:48.404Z,1.47
2022-10-26T12:03:52.431Z,1.57
2022-10-26T12:06:54.802Z,1.40
2022-10-26T12:09:57.334Z,1.30
2022-10-26T12:13:25.408Z,1.20
2022-10-26T12:16:33.101Z,1.80
2022-10-26T12:19:34.704Z,1.30
2022-10-26T12:22:40.172Z,1.30
2022-10-26T12:25:41.826Z,1.50
2022-10-26T12:28:43.513Z,1.50
2022-10-26T12:31:45.195Z,1.60
2022-10-26T12:34:47.181Z,1.63
2022-10-26T12:37:48.920Z,1.70
2022-10-26T12:41:06.511Z,2.20
2022-10-26T12:44:26.771Z,1.70
2022-10-26T12:47:28.278Z,1.17
2022-10-26T12:50:29.904Z,1.50
2022-10-26T12:53:41.058Z,1.30
2022-10-26T12:56:55.113Z,1.37
2022-10-26T13:00:05.281Z,1.67
2022-10-26T13:03:06.848Z,1.50
2022-10-26T13:06:11.398Z,1.30
2022-10-26T13:09:24.178Z,2.37
2022-10-26T13:12:27.002Z,1.30
2022-10-26T13:15:48.066Z,1.10
2022-10-26T13:18:49.809Z,1.63
2022-10-26T13:21:51.680Z,1.70
2022-10-26T13:24:53.381Z,1.20
2022-10-26T13:27:58.554Z,1.60
2022-10-26T13:31:00.209Z,1.50
2022-10-26T13:34:04.243Z,2.40
2022-10-26T13:37:05.869Z,2.30
2022-10-26T13:40:07.965Z,2.70
2022-10-26T13:43:14.659Z,1.87
2022-10-26T13:46:27.438Z,2.00
2022-10-26T13:49:38.211Z,1.87
2022-10-26T13:52:41.305Z,1.70
2022-10-26T13:55:52.905Z,1.20
2022-10-26T13:59:00.306Z,1.47
2022-10-26T14:02:14.892Z,2.20
2022-10-26T14:05:17.610Z,1.60
2022-10-26T14:08:19.932Z,1.83
2022-10-26T14:11:23.185Z,1.87
2022-10-26T14:14:24.832Z,2.03
2022-10-26T14:17:26.534Z,2.20
2022-10-26T14:20:28.990Z,1.70
2022-10-26T14:23:51.820Z,1.87
2022-10-26T14:26:53.395Z,1.80
2022-10-26T14:30:22.117Z,1.40
2022-10-26T14:33:17.890Z,2.00
2022-10-26T14:36:21.053Z,2.03
2022-10-26T14:39:34.949Z,2.13
2022-10-26T14:42:39.722Z,2.17
2022-10-26T14:45:49.464Z,2.60
2022-10-26T14:48:53.305Z,6.10
2022-10-26T14:52:05.426Z,3.80
2022-10-26T14:55:14.385Z,7.67
2022-10-26T15:01:47.681Z,5.47
2022-10-26T15:05:02.914Z,4.60
2022-10-26T15:08:04.528Z,10.87
2022-10-26T15:11:09.021Z,6.10
2022-10-26T15:14:12.373Z,4.77
2022-10-26T15:17:19.454Z,5.53
2022-10-26T15:20:22.523Z,5.70
2022-10-26T15:23:24.854Z,8.20
2022-10-26T15:26:26.703Z,5.30
2022-10-26T15:29:37.211Z,3.77
2022-10-26T15:32:38.858Z,4.87
2022-10-26T15:35:40.615Z,7.47
2022-10-26T15:38:43.101Z,5.43
2022-10-26T15:41:46.321Z,5.20
2022-10-26T15:44:49.822Z,4.87
2022-10-26T15:47:52.800Z,4.90
2022-10-26T15:50:54.695Z,5.13
2022-10-26T15:54:00.337Z,4.53
2022-10-26T15:57:02.172Z,6.37
2022-10-26T16:00:04.905Z,5.80
2022-10-26T16:03:09.796Z,7.57
2022-10-26T16:06:17.046Z,7.90
2022-10-26T16:09:21.041Z,7.47
2022-10-26T16:12:22.974Z,7.63
2022-10-26T16:15:24.938Z,9.87
2022-10-26T16:18:26.600Z,10.20
2022-10-26T16:21:28.302Z,8.83
2022-10-26T16:24:30.719Z,8.67
2022-10-26T16:27:32.328Z,8.17
2022-10-26T16:30:34.067Z,9.70
2022-10-26T16:33:35.657Z,9.30
2022-10-26T16:36:38.610Z,8.17
2022-10-26T16:39:42.565Z,8.03
2022-10-26T16:42:44.730Z,4.53
2022-10-26T16:45:46.338Z,4.27
2022-10-26T16:48:48.945Z,5.00
2022-10-26T16:51:52.558Z,5.47
2022-10-26T16:54:55.013Z,4.10
2022-10-26T16:57:56.566Z,6.80
2022-10-26T17:00:58.425Z,6.73
2022-10-26T17:04:01.010Z,6.00
2022-10-26T17:07:02.586Z,6.07
2022-10-26T17:10:14.894Z,4.80
2022-10-26T17:13:19.130Z,4.67
2022-10-26T17:16:21.849Z,4.80
2022-10-26T17:19:23.414Z,6.67
2022-10-26T17:22:25.083Z,6.53
2022-10-26T17:25:26.635Z,6.00
2022-10-26T17:28:28.363Z,5.60
2022-10-26T17:31:30.047Z,5.47
2022-10-26T17:34:31.602Z,6.07
2022-10-26T17:37:34.135Z,5.10
2022-10-26T17:40:36.883Z,5.70
2022-10-26T17:43:41.142Z,5.57
2022-10-26T17:46:42.823Z,5.53
2022-10-26T17:49:44.536Z,5.40
2022-10-26T17:52:47.586Z,6.10
2022-10-26T17:55:49.260Z,11.57
2022-10-26T17:58:52.380Z,4.60
2022-10-26T18:01:54.007Z,4.53
2022-10-26T18:04:56.094Z,3.63
2022-10-26T18:07:58.062Z,6.33
2022-10-26T18:10:59.802Z,4.43
2022-10-26T18:14:03.750Z,3.87
2022-10-26T18:17:05.312Z,3.97
2022-10-26T18:20:07.571Z,3.13
2022-10-26T18:23:09.178Z,3.90
2022-10-26T18:26:18.452Z,2.93
2022-10-26T18:29:20.502Z,3.33
2022-10-26T18:32:22.105Z,3.53
2022-10-26T18:35:25.247Z,3.10
2022-10-26T18:38:30.768Z,5.43
2022-10-26T18:41:32.430Z,4.47
2022-10-26T18:44:34.116Z,3.20
2022-10-26T18:47:35.815Z,4.07
2022-10-26T18:50:37.473Z,3.37
2022-10-26T18:53:39.929Z,6.27
2022-10-26T18:56:41.562Z,7.20
2022-10-26T18:59:43.184Z,9.00
2022-10-26T19:02:46.445Z,3.80
2022-10-26T19:05:50.388Z,3.57
2022-10-26T19:08:52.490Z,5.30
2022-10-26T19:11:54.019Z,4.33
2022-10-26T19:14:55.619Z,4.03
2022-10-26T19:17:57.915Z,6.00
2022-10-26T19:21:00.717Z,5.30
2022-10-26T19:24:02.629Z,2.97
2022-10-26T19:27:04.342Z,2.77
2022-10-26T19:30:06.237Z,2.90
2022-10-26T19:33:07.859Z,2.97
2022-10-26T19:36:11.398Z,3.60
2022-10-26T19:39:16.651Z,5.60
2022-10-26T19:42:18.246Z,2.57
2022-10-26T19:45:19.807Z,3.00
2022-10-26T19:48:21.394Z,3.07
2022-10-26T19:51:23.400Z,5.50
2022-10-26T19:54:24.990Z,2.73
2022-10-26T19:57:26.563Z,3.40
2022-10-26T20:00:28.351Z,3.50
2022-10-26T20:03:30.413Z,4.10
2022-10-26T20:06:32.155Z,3.33
2022-10-26T20:09:33.855Z,3.93
2022-10-26T20:12:35.721Z,2.90
2022-10-26T20:15:37.570Z,3.00
2022-10-26T20:18:43.931Z,2.40
2022-10-26T20:21:49.273Z,2.50
2022-10-26T20:24:50.958Z,2.90
2022-10-26T20:27:52.956Z,2.93
2022-10-26T20:30:54.877Z,2.93
2022-10-26T20:33:56.467Z,2.20
2022-10-26T20:36:58.069Z,2.30
2022-10-26T20:39:59.849Z,2.47
2022-10-26T20:43:01.641Z,3.00
2022-10-26T20:46:03.374Z,2.90
2022-10-26T20:49:05.074Z,2.40
2022-10-26T20:52:22.145Z,3.17
2022-10-26T20:55:26.590Z,3.40
2022-10-26T20:58:41.938Z,3.23
2022-10-26T21:01:43.551Z,2.97
2022-10-26T21:04:45.138Z,2.87
2022-10-26T21:07:46.864Z,2.97
2022-10-26T21:10:51.421Z,2.83
2022-10-26T21:13:53.951Z,2.40
2022-10-26T21:16:55.517Z,2.80
2022-10-26T21:19:57.189Z,2.43
2022-10-26T21:22:58.873Z,2.43
2022-10-26T21:26:00.677Z,3.67
2022-10-26T21:29:03.284Z,2.93
2022-10-26T21:32:05.051Z,3.33
2022-10-26T21:35:06.732Z,2.70
2022-10-26T21:38:08.259Z,2.27
2022-10-26T21:41:11.232Z,2.40
2022-10-26T21:44:24.596Z,2.20
2022-10-26T21:47:34.451Z,2.03
2022-10-26T21:50:36.053Z,2.03
2022-10-26T21:53:37.630Z,2.30
2022-10-26T21:56:39.301Z,2.40
2022-10-26T21:59:40.827Z,2.30
2022-10-26T22:02:42.349Z,2.30
2022-10-26T22:05:45.890Z,2.70
2022-10-26T22:08:47.621Z,2.50
2022-10-26T22:11:49.249Z,2.63
2022-10-26T22:14:50.835Z,3.00
2022-10-26T22:17:52.694Z,2.53
2022-10-26T22:20:58.127Z,2.70
2022-10-26T22:23:59.687Z,2.50
2022-10-26T22:27:01.255Z,2.80
2022-10-26T22:30:02.894Z,2.47
2022-10-26T22:33:04.459Z,2.50
2022-10-26T22:36:06.817Z,2.30
2022-10-26T22:39:08.315Z,2.80
2022-10-26T22:42:09.865Z,2.77
2022-10-26T22:45:11.431Z,2.30
2022-10-26T22:48:13.103Z,2.37
2022-10-26T22:51:16.059Z,2.23
2022-10-26T22:54:17.653Z,2.60
2022-10-26T22:57:19.235Z,2.13
2022-10-26T23:00:20.897Z,2.13
2022-10-26T23:03:22.511Z,2.50
2022-10-26T23:06:25.327Z,2.40
2022-10-26T23:09:26.821Z,2.30
2022-10-26T23:12:28.326Z,2.33
2022-10-26T23:15:30.031Z,2.50
2022-10-26T23:18:31.674Z,2.40
2022-10-26T23:21:33.232Z,2.43
2022-10-26T23:24:34.762Z,2.13
2022-10-26T23:27:36.328Z,1.67
2022-10-26T23:30:38.161Z,2.17
2022-10-26T23:33:39.803Z,2.10
2022-10-26T23:36:41.346Z,2.17
2022-10-26T23:39:42.885Z,2.10
2022-10-26T23:42:44.447Z,2.23
2022-10-26T23:45:46.290Z,2.27
2022-10-26T23:48:48.007Z,2.10
2022-10-26T23:51:49.551Z,2.07
2022-10-26T23:54:51.133Z,2.40
2022-10-26T23:57:52.900Z,2.00
